sensor_id;sensor_type;location;lat;lon;timestamp;P1;durP1;ratioP1;P2;durP2;ratioP2
25990;SDS011;13779;-33.886;151.198;2023-03-24T00:01:02;10.90;;;3.95;;
25990;SDS011;13779;-33.886;151.198;2023-03-24T00:03:33;11.27;;;4.22;;
25990;SDS011;13779;-33.886;151.198;2023-03-24T00:06:06;7.65;;;4.00;;
25990;SDS011;13779;-33.886;151.198;2023-03-24T00:08:41;10.07;;;4.57;;
25990;SDS011;13779;-33.886;151.198;2023-03-24T00:11:15;12.15;;;4.13;;
25990;SDS011;13779;-33.886;151.198;2023-03-24T00:13:47;11.10;;;4.35;;
25990;SDS011;13779;-33.886;151.198;2023-03-24T00:16:18;13.65;;;3.75;;
25990;SDS011;13779;-33.886;151.198;2023-03-24T00:21:21;11.38;;;4.13;;
25990;SDS011;13779;-33.886;151.198;2023-03-24T00:23:53;11.05;;;4.43;;
25990;SDS011;13779;-33.886;151.198;2023-03-24T00:26:26;13.27;;;4.55;;
25990;SDS011;13779;-33.886;151.198;2023-03-24T00:31:27;13.75;;;4.68;;
25990;SDS011;13779;-33.886;151.198;2023-03-24T00:33:58;9.75;;;3.80;;
25990;SDS011;13779;-33.886;151.198;2023-03-24T00:36:30;11.63;;;4.85;;
25990;SDS011;13779;-33.886;151.198;2023-03-24T00:39:00;9.45;;;3.60;;
25990;SDS011;13779;-33.886;151.198;2023-03-24T00:41:33;10.95;;;4.28;;
25990;SDS011;13779;-33.886;151.198;2023-03-24T00:44:04;10.98;;;3.90;;
25990;SDS011;13779;-33.886;151.198;2023-03-24T00:46:34;11.15;;;3.95;;
25990;SDS011;13779;-33.886;151.198;2023-03-24T00:49:13;9.52;;;3.83;;
25990;SDS011;13779;-33.886;151.198;2023-03-24T00:51:45;17.20;;;4.32;;
25990;SDS011;13779;-33.886;151.198;2023-03-24T00:54:15;8.60;;;4.15;;
25990;SDS011;13779;-33.886;151.198;2023-03-24T00:56:49;12.38;;;3.92;;
25990;SDS011;13779;-33.886;151.198;2023-03-24T00:59:23;12.38;;;3.97;;
25990;SDS011;13779;-33.886;151.198;2023-03-24T01:01:57;9.02;;;3.63;;
25990;SDS011;13779;-33.886;151.198;2023-03-24T01:04:27;12.27;;;4.00;;
25990;SDS011;13779;-33.886;151.198;2023-03-24T01:06:58;12.77;;;4.30;;
25990;SDS011;13779;-33.886;151.198;2023-03-24T01:09:28;12.43;;;4.07;;
25990;SDS011;13779;-33.886;151.198;2023-03-24T01:11:59;13.07;;;4.25;;
25990;SDS011;13779;-33.886;151.198;2023-03-24T01:14:31;7.95;;;4.40;;
25990;SDS011;13779;-33.886;151.198;2023-03-24T01:17:02;13.32;;;4.25;;
25990;SDS011;13779;-33.886;151.198;2023-03-24T01:19:33;11.25;;;4.13;;
25990;SDS011;13779;-33.886;151.198;2023-03-24T01:22:09;13.18;;;4.60;;
25990;SDS011;13779;-33.886;151.198;2023-03-24T01:24:41;11.82;;;4.28;;
25990;SDS011;13779;-33.886;151.198;2023-03-24T01:27:12;16.23;;;4.88;;
25990;SDS011;13779;-33.886;151.198;2023-03-24T01:29:43;13.88;;;4.38;;
25990;SDS011;13779;-33.886;151.198;2023-03-24T01:32:14;13.70;;;4.15;;
25990;SDS011;13779;-33.886;151.198;2023-03-24T01:34:45;13.07;;;4.38;;
25990;SDS011;13779;-33.886;151.198;2023-03-24T01:37:15;10.85;;;4.22;;
25990;SDS011;13779;-33.886;151.198;2023-03-24T01:39:46;16.90;;;4.20;;
25990;SDS011;13779;-33.886;151.198;2023-03-24T01:42:17;8.68;;;4.13;;
25990;SDS011;13779;-33.886;151.198;2023-03-24T01:44:51;10.88;;;4.72;;
25990;SDS011;13779;-33.886;151.198;2023-03-24T01:47:28;11.27;;;4.20;;
25990;SDS011;13779;-33.886;151.198;2023-03-24T01:50:01;15.45;;;4.32;;
25990;SDS011;13779;-33.886;151.198;2023-03-24T01:52:39;11.75;;;4.13;;
25990;SDS011;13779;-33.886;151.198;2023-03-24T01:55:12;13.43;;;4.57;;
25990;SDS011;13779;-33.886;151.198;2023-03-24T01:57:48;9.15;;;3.40;;
25990;SDS011;13779;-33.886;151.198;2023-03-24T02:00:23;10.23;;;3.70;;
25990;SDS011;13779;-33.886;151.198;2023-03-24T02:03:00;11.73;;;3.97;;
25990;SDS011;13779;-33.886;151.198;2023-03-24T02:05:42;10.50;;;3.47;;
25990;SDS011;13779;-33.886;151.198;2023-03-24T02:08:24;12.07;;;3.97;;
25990;SDS011;13779;-33.886;151.198;2023-03-24T02:11:02;14.35;;;4.65;;
25990;SDS011;13779;-33.886;151.198;2023-03-24T02:19:46;18.00;;;3.63;;
25990;SDS011;13779;-33.886;151.198;2023-03-24T02:22:47;10.90;;;3.83;;
25990;SDS011;13779;-33.886;151.198;2023-03-24T02:31:41;10.82;;;3.55;;
25990;SDS011;13779;-33.886;151.198;2023-03-24T02:48:48;11.80;;;3.85;;
25990;SDS011;13779;-33.886;151.198;2023-03-24T02:54:23;9.45;;;3.15;;
25990;SDS011;13779;-33.886;151.198;2023-03-24T02:57:48;11.23;;;3.40;;
25990;SDS011;13779;-33.886;151.198;2023-03-24T03:01:19;8.90;;;3.42;;
25990;SDS011;13779;-33.886;151.198;2023-03-24T03:04:04;11.82;;;3.15;;
25990;SDS011;13779;-33.886;151.198;2023-03-24T03:06:39;8.37;;;3.57;;
25990;SDS011;13779;-33.886;151.198;2023-03-24T03:09:16;9.73;;;3.13;;
25990;SDS011;13779;-33.886;151.198;2023-03-24T03:11:49;9.25;;;3.60;;
25990;SDS011;13779;-33.886;151.198;2023-03-24T03:14:31;8.77;;;3.20;;
25990;SDS011;13779;-33.886;151.198;2023-03-24T03:17:34;12.60;;;3.75;;
25990;SDS011;13779;-33.886;151.198;2023-03-24T03:20:15;8.63;;;2.88;;
25990;SDS011;13779;-33.886;151.198;2023-03-24T03:22:52;9.15;;;2.67;;
25990;SDS011;13779;-33.886;151.198;2023-03-24T03:25:29;8.88;;;2.67;;
25990;SDS011;13779;-33.886;151.198;2023-03-24T03:28:04;7.65;;;3.88;;
25990;SDS011;13779;-33.886;151.198;2023-03-24T03:30:38;9.35;;;3.47;;
25990;SDS011;13779;-33.886;151.198;2023-03-24T03:33:24;11.40;;;3.33;;
25990;SDS011;13779;-33.886;151.198;2023-03-24T03:36:13;13.27;;;3.28;;
25990;SDS011;13779;-33.886;151.198;2023-03-24T03:39:11;8.07;;;2.87;;
25990;SDS011;13779;-33.886;151.198;2023-03-24T03:41:53;11.13;;;3.22;;
25990;SDS011;13779;-33.886;151.198;2023-03-24T03:44:24;10.55;;;3.10;;
25990;SDS011;13779;-33.886;151.198;2023-03-24T03:46:55;8.30;;;2.35;;
25990;SDS011;13779;-33.886;151.198;2023-03-24T03:49:26;10.88;;;2.63;;
25990;SDS011;13779;-33.886;151.198;2023-03-24T03:51:56;11.02;;;2.75;;
25990;SDS011;13779;-33.886;151.198;2023-03-24T03:54:27;5.40;;;2.15;;
25990;SDS011;13779;-33.886;151.198;2023-03-24T03:56:59;8.60;;;2.20;;
25990;SDS011;13779;-33.886;151.198;2023-03-24T03:59:34;4.38;;;1.85;;
25990;SDS011;13779;-33.886;151.198;2023-03-24T04:19:28;7.07;;;2.15;;
25990;SDS011;13779;-33.886;151.198;2023-03-24T04:34:34;9.13;;;2.25;;
25990;SDS011;13779;-33.886;151.198;2023-03-24T04:37:11;6.60;;;2.65;;
25990;SDS011;13779;-33.886;151.198;2023-03-24T04:39:53;6.47;;;2.30;;
25990;SDS011;13779;-33.886;151.198;2023-03-24T04:42:30;8.77;;;2.60;;
25990;SDS011;13779;-33.886;151.198;2023-03-24T04:45:06;11.50;;;2.38;;
25990;SDS011;13779;-33.886;151.198;2023-03-24T04:47:41;9.30;;;3.63;;
25990;SDS011;13779;-33.886;151.198;2023-03-24T04:50:28;9.00;;;3.10;;
25990;SDS011;13779;-33.886;151.198;2023-03-24T04:53:04;11.90;;;3.17;;
25990;SDS011;13779;-33.886;151.198;2023-03-24T04:58:34;7.47;;;2.83;;
25990;SDS011;13779;-33.886;151.198;2023-03-24T05:01:05;9.85;;;2.72;;
25990;SDS011;13779;-33.886;151.198;2023-03-24T05:06:06;7.07;;;2.33;;
25990;SDS011;13779;-33.886;151.198;2023-03-24T05:08:38;8.32;;;2.20;;
25990;SDS011;13779;-33.886;151.198;2023-03-24T05:11:09;8.10;;;2.92;;
25990;SDS011;13779;-33.886;151.198;2023-03-24T05:13:43;7.47;;;2.30;;
25990;SDS011;13779;-33.886;151.198;2023-03-24T05:16:14;6.53;;;2.40;;
25990;SDS011;13779;-33.886;151.198;2023-03-24T05:18:45;7.72;;;2.30;;
25990;SDS011;13779;-33.886;151.198;2023-03-24T05:21:16;11.13;;;3.70;;
25990;SDS011;13779;-33.886;151.198;2023-03-24T05:23:48;6.93;;;2.55;;
25990;SDS011;13779;-33.886;151.198;2023-03-24T05:26:18;6.40;;;2.40;;
25990;SDS011;13779;-33.886;151.198;2023-03-24T05:31:19;5.75;;;2.10;;
25990;SDS011;13779;-33.886;151.198;2023-03-24T05:33:54;8.70;;;2.80;;
25990;SDS011;13779;-33.886;151.198;2023-03-24T05:36:25;5.60;;;2.28;;
25990;SDS011;13779;-33.886;151.198;2023-03-24T05:41:26;8.77;;;2.67;;
25990;SDS011;13779;-33.886;151.198;2023-03-24T05:43:56;9.07;;;2.80;;
25990;SDS011;13779;-33.886;151.198;2023-03-24T05:46:27;7.57;;;2.30;;
25990;SDS011;13779;-33.886;151.198;2023-03-24T05:48:59;5.43;;;2.30;;
25990;SDS011;13779;-33.886;151.198;2023-03-24T05:51:29;4.35;;;2.28;;
25990;SDS011;13779;-33.886;151.198;2023-03-24T05:54:00;10.23;;;2.47;;
25990;SDS011;13779;-33.886;151.198;2023-03-24T05:56:33;9.35;;;2.00;;
25990;SDS011;13779;-33.886;151.198;2023-03-24T05:59:04;6.80;;;1.85;;
25990;SDS011;13779;-33.886;151.198;2023-03-24T06:01:34;6.80;;;2.03;;
25990;SDS011;13779;-33.886;151.198;2023-03-24T06:04:05;5.60;;;1.70;;
25990;SDS011;13779;-33.886;151.198;2023-03-24T06:06:39;10.15;;;2.22;;
25990;SDS011;13779;-33.886;151.198;2023-03-24T06:09:13;4.38;;;1.80;;
25990;SDS011;13779;-33.886;151.198;2023-03-24T06:11:47;5.18;;;2.13;;
25990;SDS011;13779;-33.886;151.198;2023-03-24T06:14:18;7.28;;;2.13;;
25990;SDS011;13779;-33.886;151.198;2023-03-24T06:16:49;4.45;;;1.75;;
25990;SDS011;13779;-33.886;151.198;2023-03-24T06:19:20;6.25;;;2.00;;
25990;SDS011;13779;-33.886;151.198;2023-03-24T06:21:52;7.00;;;1.90;;
25990;SDS011;13779;-33.886;151.198;2023-03-24T06:24:23;5.00;;;2.05;;
25990;SDS011;13779;-33.886;151.198;2023-03-24T06:26:54;5.07;;;1.80;;
25990;SDS011;13779;-33.886;151.198;2023-03-24T06:29:29;7.25;;;1.95;;
25990;SDS011;13779;-33.886;151.198;2023-03-24T06:32:00;8.40;;;2.20;;
25990;SDS011;13779;-33.886;151.198;2023-03-24T06:37:01;4.47;;;1.65;;
25990;SDS011;13779;-33.886;151.198;2023-03-24T06:39:31;7.57;;;2.53;;
25990;SDS011;13779;-33.886;151.198;2023-03-24T06:42:02;7.15;;;1.90;;
25990;SDS011;13779;-33.886;151.198;2023-03-24T06:44:33;5.25;;;1.85;;
25990;SDS011;13779;-33.886;151.198;2023-03-24T06:47:04;6.60;;;2.08;;
25990;SDS011;13779;-33.886;151.198;2023-03-24T06:49:35;6.18;;;2.15;;
25990;SDS011;13779;-33.886;151.198;2023-03-24T06:52:05;6.82;;;2.15;;
25990;SDS011;13779;-33.886;151.198;2023-03-24T06:57:07;6.00;;;1.95;;
25990;SDS011;13779;-33.886;151.198;2023-03-24T06:59:38;6.57;;;1.98;;
25990;SDS011;13779;-33.886;151.198;2023-03-24T07:02:09;6.30;;;1.80;;
25990;SDS011;13779;-33.886;151.198;2023-03-24T07:07:10;7.93;;;2.05;;
25990;SDS011;13779;-33.886;151.198;2023-03-24T07:10:02;8.85;;;2.13;;
25990;SDS011;13779;-33.886;151.198;2023-03-24T07:12:34;6.75;;;1.90;;
25990;SDS011;13779;-33.886;151.198;2023-03-24T07:15:05;5.40;;;1.73;;
25990;SDS011;13779;-33.886;151.198;2023-03-24T07:17:36;6.78;;;2.00;;
25990;SDS011;13779;-33.886;151.198;2023-03-24T07:20:09;6.53;;;2.13;;
25990;SDS011;13779;-33.886;151.198;2023-03-24T07:22:39;9.18;;;3.47;;
25990;SDS011;13779;-33.886;151.198;2023-03-24T07:25:11;10.32;;;2.63;;
25990;SDS011;13779;-33.886;151.198;2023-03-24T07:27:42;8.82;;;2.55;;
25990;SDS011;13779;-33.886;151.198;2023-03-24T07:30:14;7.55;;;2.33;;
25990;SDS011;13779;-33.886;151.198;2023-03-24T07:32:50;8.70;;;2.10;;
25990;SDS011;13779;-33.886;151.198;2023-03-24T07:35:23;7.18;;;2.17;;
25990;SDS011;13779;-33.886;151.198;2023-03-24T07:38:00;7.65;;;2.63;;
25990;SDS011;13779;-33.886;151.198;2023-03-24T07:40:31;5.55;;;2.17;;
25990;SDS011;13779;-33.886;151.198;2023-03-24T07:43:03;8.80;;;2.50;;
25990;SDS011;13779;-33.886;151.198;2023-03-24T07:45:34;8.55;;;2.25;;
25990;SDS011;13779;-33.886;151.198;2023-03-24T07:48:05;9.10;;;2.70;;
25990;SDS011;13779;-33.886;151.198;2023-03-24T07:50:36;8.60;;;2.42;;
25990;SDS011;13779;-33.886;151.198;2023-03-24T07:53:07;8.70;;;2.50;;
25990;SDS011;13779;-33.886;151.198;2023-03-24T07:55:38;4.82;;;2.10;;
25990;SDS011;13779;-33.886;151.198;2023-03-24T07:58:09;7.80;;;2.20;;
25990;SDS011;13779;-33.886;151.198;2023-03-24T08:00:39;6.80;;;2.42;;
25990;SDS011;13779;-33.886;151.198;2023-03-24T08:03:11;9.75;;;2.50;;
25990;SDS011;13779;-33.886;151.198;2023-03-24T08:05:42;7.82;;;2.78;;
25990;SDS011;13779;-33.886;151.198;2023-03-24T08:08:14;8.82;;;2.40;;
25990;SDS011;13779;-33.886;151.198;2023-03-24T08:10:46;5.60;;;2.28;;
25990;SDS011;13779;-33.886;151.198;2023-03-24T08:13:18;6.07;;;2.20;;
25990;SDS011;13779;-33.886;151.198;2023-03-24T08:15:49;9.02;;;2.88;;
25990;SDS011;13779;-33.886;151.198;2023-03-24T08:18:21;9.32;;;2.70;;
25990;SDS011;13779;-33.886;151.198;2023-03-24T08:20:56;14.90;;;3.05;;
25990;SDS011;13779;-33.886;151.198;2023-03-24T08:23:29;9.85;;;2.83;;
25990;SDS011;13779;-33.886;151.198;2023-03-24T08:26:01;7.35;;;2.75;;
25990;SDS011;13779;-33.886;151.198;2023-03-24T08:28:31;7.95;;;2.70;;
25990;SDS011;13779;-33.886;151.198;2023-03-24T08:31:03;8.38;;;2.35;;
25990;SDS011;13779;-33.886;151.198;2023-03-24T08:33:34;10.32;;;3.70;;
25990;SDS011;13779;-33.886;151.198;2023-03-24T08:36:05;11.52;;;3.85;;
25990;SDS011;13779;-33.886;151.198;2023-03-24T08:38:36;14.52;;;3.25;;
25990;SDS011;13779;-33.886;151.198;2023-03-24T08:41:07;12.35;;;3.05;;
25990;SDS011;13779;-33.886;151.198;2023-03-24T08:43:37;8.57;;;2.97;;
25990;SDS011;13779;-33.886;151.198;2023-03-24T08:46:08;11.48;;;3.25;;
25990;SDS011;13779;-33.886;151.198;2023-03-24T08:48:39;7.60;;;2.75;;
25990;SDS011;13779;-33.886;151.198;2023-03-24T08:51:12;10.25;;;3.72;;
25990;SDS011;13779;-33.886;151.198;2023-03-24T08:53:44;8.68;;;3.80;;
25990;SDS011;13779;-33.886;151.198;2023-03-24T08:56:15;6.82;;;3.20;;
25990;SDS011;13779;-33.886;151.198;2023-03-24T08:58:45;7.97;;;3.08;;
25990;SDS011;13779;-33.886;151.198;2023-03-24T09:01:19;9.48;;;3.25;;
25990;SDS011;13779;-33.886;151.198;2023-03-24T09:03:50;10.57;;;3.45;;
25990;SDS011;13779;-33.886;151.198;2023-03-24T09:06:21;14.38;;;3.20;;
25990;SDS011;13779;-33.886;151.198;2023-03-24T09:08:52;7.70;;;3.15;;
25990;SDS011;13779;-33.886;151.198;2023-03-24T09:11:23;7.40;;;4.45;;
25990;SDS011;13779;-33.886;151.198;2023-03-24T09:13:53;13.32;;;3.83;;
25990;SDS011;13779;-33.886;151.198;2023-03-24T09:16:24;14.27;;;3.72;;
25990;SDS011;13779;-33.886;151.198;2023-03-24T09:18:55;11.80;;;3.35;;
25990;SDS011;13779;-33.886;151.198;2023-03-24T09:21:26;12.48;;;4.28;;
25990;SDS011;13779;-33.886;151.198;2023-03-24T09:23:56;8.02;;;3.30;;
25990;SDS011;13779;-33.886;151.198;2023-03-24T09:26:27;10.70;;;3.20;;
25990;SDS011;13779;-33.886;151.198;2023-03-24T09:28:58;9.65;;;3.38;;
25990;SDS011;13779;-33.886;151.198;2023-03-24T09:31:29;11.23;;;3.45;;
25990;SDS011;13779;-33.886;151.198;2023-03-24T09:33:59;9.40;;;3.28;;
25990;SDS011;13779;-33.886;151.198;2023-03-24T09:36:31;12.50;;;3.50;;
25990;SDS011;13779;-33.886;151.198;2023-03-24T09:39:02;7.05;;;3.08;;
25990;SDS011;13779;-33.886;151.198;2023-03-24T09:41:32;12.82;;;3.33;;
25990;SDS011;13779;-33.886;151.198;2023-03-24T09:46:45;12.80;;;3.38;;
25990;SDS011;13779;-33.886;151.198;2023-03-24T09:49:42;12.35;;;3.50;;
25990;SDS011;13779;-33.886;151.198;2023-03-24T09:52:14;16.70;;;4.05;;
25990;SDS011;13779;-33.886;151.198;2023-03-24T09:54:57;13.10;;;3.92;;
25990;SDS011;13779;-33.886;151.198;2023-03-24T09:57:45;9.32;;;3.15;;
25990;SDS011;13779;-33.886;151.198;2023-03-24T10:00:19;12.80;;;3.45;;
25990;SDS011;13779;-33.886;151.198;2023-03-24T10:03:37;14.02;;;3.63;;
25990;SDS011;13779;-33.886;151.198;2023-03-24T10:08:39;6.85;;;3.15;;
25990;SDS011;13779;-33.886;151.198;2023-03-24T10:14:17;9.73;;;3.40;;
25990;SDS011;13779;-33.886;151.198;2023-03-24T10:17:15;9.95;;;2.95;;
25990;SDS011;13779;-33.886;151.198;2023-03-24T10:22:42;8.40;;;2.70;;
25990;SDS011;13779;-33.886;151.198;2023-03-24T10:25:17;10.85;;;3.22;;
25990;SDS011;13779;-33.886;151.198;2023-03-24T10:28:11;10.40;;;2.90;;
25990;SDS011;13779;-33.886;151.198;2023-03-24T10:30:48;8.70;;;2.47;;
25990;SDS011;13779;-33.886;151.198;2023-03-24T10:33:22;16.83;;;2.90;;
25990;SDS011;13779;-33.886;151.198;2023-03-24T10:36:35;10.52;;;2.55;;
25990;SDS011;13779;-33.886;151.198;2023-03-24T10:38:52;11.98;;;2.92;;
25990;SDS011;13779;-33.886;151.198;2023-03-24T10:41:27;11.43;;;2.33;;
25990;SDS011;13779;-33.886;151.198;2023-03-24T10:43:57;10.25;;;2.70;;
25990;SDS011;13779;-33.886;151.198;2023-03-24T10:46:29;11.43;;;2.72;;
25990;SDS011;13779;-33.886;151.198;2023-03-24T10:51:46;8.93;;;2.80;;
25990;SDS011;13779;-33.886;151.198;2023-03-24T10:54:31;8.82;;;2.78;;
25990;SDS011;13779;-33.886;151.198;2023-03-24T10:57:02;13.40;;;3.27;;
25990;SDS011;13779;-33.886;151.198;2023-03-24T10:59:36;10.05;;;2.72;;
25990;SDS011;13779;-33.886;151.198;2023-03-24T11:04:59;8.23;;;2.35;;
25990;SDS011;13779;-33.886;151.198;2023-03-24T11:07:45;7.47;;;2.50;;
25990;SDS011;13779;-33.886;151.198;2023-03-24T11:10:18;13.93;;;3.53;;
25990;SDS011;13779;-33.886;151.198;2023-03-24T11:15:30;8.02;;;2.50;;
25990;SDS011;13779;-33.886;151.198;2023-03-24T11:20:43;7.03;;;2.80;;
25990;SDS011;13779;-33.886;151.198;2023-03-24T11:23:19;8.00;;;2.55;;
25990;SDS011;13779;-33.886;151.198;2023-03-24T11:26:35;11.25;;;3.17;;
25990;SDS011;13779;-33.886;151.198;2023-03-24T11:28:46;9.38;;;2.95;;
25990;SDS011;13779;-33.886;151.198;2023-03-24T11:31:23;10.00;;;3.08;;
25990;SDS011;13779;-33.886;151.198;2023-03-24T11:41:33;6.47;;;2.30;;
25990;SDS011;13779;-33.886;151.198;2023-03-24T11:46:51;8.55;;;3.03;;
25990;SDS011;13779;-33.886;151.198;2023-03-24T11:49:49;6.85;;;2.50;;
25990;SDS011;13779;-33.886;151.198;2023-03-24T11:52:59;6.47;;;2.20;;
25990;SDS011;13779;-33.886;151.198;2023-03-24T11:55:35;6.65;;;2.35;;
25990;SDS011;13779;-33.886;151.198;2023-03-24T11:58:18;10.85;;;2.50;;
25990;SDS011;13779;-33.886;151.198;2023-03-24T12:09:41;9.02;;;2.85;;
25990;SDS011;13779;-33.886;151.198;2023-03-24T12:20:33;8.65;;;3.47;;
25990;SDS011;13779;-33.886;151.198;2023-03-24T12:23:29;12.73;;;3.65;;
25990;SDS011;13779;-33.886;151.198;2023-03-24T12:46:03;6.47;;;2.40;;
25990;SDS011;13779;-33.886;151.198;2023-03-24T12:48:50;8.82;;;2.50;;
25990;SDS011;13779;-33.886;151.198;2023-03-24T12:51:42;6.40;;;2.63;;
25990;SDS011;13779;-33.886;151.198;2023-03-24T12:54:41;10.45;;;2.85;;
25990;SDS011;13779;-33.886;151.198;2023-03-24T12:57:18;10.90;;;3.17;;
25990;SDS011;13779;-33.886;151.198;2023-03-24T12:59:56;9.90;;;3.47;;
25990;SDS011;13779;-33.886;151.198;2023-03-24T13:02:37;9.20;;;2.92;;
25990;SDS011;13779;-33.886;151.198;2023-03-24T13:05:19;8.90;;;2.87;;
25990;SDS011;13779;-33.886;151.198;2023-03-24T13:07:56;11.38;;;2.88;;
25990;SDS011;13779;-33.886;151.198;2023-03-24T13:10:35;8.80;;;2.58;;
25990;SDS011;13779;-33.886;151.198;2023-03-24T13:15:52;9.77;;;3.08;;
25990;SDS011;13779;-33.886;151.198;2023-03-24T13:21:18;7.15;;;2.60;;
25990;SDS011;13779;-33.886;151.198;2023-03-24T13:24:01;7.90;;;2.40;;
25990;SDS011;13779;-33.886;151.198;2023-03-24T13:26:46;5.65;;;2.20;;
25990;SDS011;13779;-33.886;151.198;2023-03-24T13:38:28;9.48;;;2.35;;
25990;SDS011;13779;-33.886;151.198;2023-03-24T13:41:16;7.03;;;1.98;;
25990;SDS011;13779;-33.886;151.198;2023-03-24T13:44:37;7.25;;;2.08;;
25990;SDS011;13779;-33.886;151.198;2023-03-24T13:49:59;7.18;;;2.25;;
25990;SDS011;13779;-33.886;151.198;2023-03-24T13:52:35;9.30;;;2.80;;
25990;SDS011;13779;-33.886;151.198;2023-03-24T13:55:20;8.10;;;2.75;;
25990;SDS011;13779;-33.886;151.198;2023-03-24T13:57:59;8.73;;;2.33;;
25990;SDS011;13779;-33.886;151.198;2023-03-24T14:03:45;7.60;;;1.92;;
25990;SDS011;13779;-33.886;151.198;2023-03-24T14:06:45;10.50;;;2.20;;
25990;SDS011;13779;-33.886;151.198;2023-03-24T14:09:22;6.63;;;2.60;;
25990;SDS011;13779;-33.886;151.198;2023-03-24T14:14:35;5.15;;;2.30;;
25990;SDS011;13779;-33.886;151.198;2023-03-24T14:17:26;8.23;;;2.80;;
25990;SDS011;13779;-33.886;151.198;2023-03-24T14:22:38;10.60;;;2.45;;
25990;SDS011;13779;-33.886;151.198;2023-03-24T14:25:25;8.27;;;2.95;;
25990;SDS011;13779;-33.886;151.198;2023-03-24T14:28:05;8.77;;;2.22;;
25990;SDS011;13779;-33.886;151.198;2023-03-24T14:30:55;7.65;;;1.95;;
25990;SDS011;13779;-33.886;151.198;2023-03-24T14:33:28;7.70;;;2.10;;
25990;SDS011;13779;-33.886;151.198;2023-03-24T14:36:02;7.07;;;2.13;;
25990;SDS011;13779;-33.886;151.198;2023-03-24T14:38:40;5.80;;;2.28;;
25990;SDS011;13779;-33.886;151.198;2023-03-24T14:41:13;5.72;;;1.88;;
25990;SDS011;13779;-33.886;151.198;2023-03-24T14:48:56;8.13;;;2.35;;
25990;SDS011;13779;-33.886;151.198;2023-03-24T14:54:19;8.85;;;2.30;;
25990;SDS011;13779;-33.886;151.198;2023-03-24T14:57:03;14.77;;;3.42;;
25990;SDS011;13779;-33.886;151.198;2023-03-24T15:02:26;5.97;;;2.05;;
25990;SDS011;13779;-33.886;151.198;2023-03-24T15:08:00;11.18;;;3.00;;
25990;SDS011;13779;-33.886;151.198;2023-03-24T15:18:50;7.28;;;2.05;;
25990;SDS011;13779;-33.886;151.198;2023-03-24T15:26:52;4.65;;;2.03;;
25990;SDS011;13779;-33.886;151.198;2023-03-24T15:29:37;9.02;;;2.15;;
25990;SDS011;13779;-33.886;151.198;2023-03-24T15:32:16;6.97;;;1.77;;
25990;SDS011;13779;-33.886;151.198;2023-03-24T15:34:52;5.65;;;1.45;;
25990;SDS011;13779;-33.886;151.198;2023-03-24T15:43:00;6.03;;;1.67;;
25990;SDS011;13779;-33.886;151.198;2023-03-24T15:45:48;5.88;;;1.63;;
25990;SDS011;13779;-33.886;151.198;2023-03-24T15:48:35;6.68;;;1.83;;
25990;SDS011;13779;-33.886;151.198;2023-03-24T15:51:06;5.55;;;1.70;;
25990;SDS011;13779;-33.886;151.198;2023-03-24T15:53:41;7.72;;;1.67;;
25990;SDS011;13779;-33.886;151.198;2023-03-24T15:56:29;7.75;;;1.88;;
25990;SDS011;13779;-33.886;151.198;2023-03-24T16:01:43;6.38;;;1.90;;
25990;SDS011;13779;-33.886;151.198;2023-03-24T16:04:17;7.57;;;1.90;;
25990;SDS011;13779;-33.886;151.198;2023-03-24T16:06:51;7.53;;;1.88;;
25990;SDS011;13779;-33.886;151.198;2023-03-24T16:09:32;5.28;;;2.00;;
25990;SDS011;13779;-33.886;151.198;2023-03-24T16:12:09;6.30;;;2.13;;
25990;SDS011;13779;-33.886;151.198;2023-03-24T16:14:40;12.25;;;2.38;;
25990;SDS011;13779;-33.886;151.198;2023-03-24T16:17:10;7.88;;;2.22;;
25990;SDS011;13779;-33.886;151.198;2023-03-24T16:19:41;8.50;;;2.33;;
25990;SDS011;13779;-33.886;151.198;2023-03-24T16:22:11;5.00;;;2.17;;
25990;SDS011;13779;-33.886;151.198;2023-03-24T16:24:42;7.30;;;1.95;;
25990;SDS011;13779;-33.886;151.198;2023-03-24T16:27:13;5.47;;;1.80;;
25990;SDS011;13779;-33.886;151.198;2023-03-24T16:29:44;10.07;;;1.88;;
25990;SDS011;13779;-33.886;151.198;2023-03-24T16:32:15;10.32;;;2.17;;
25990;SDS011;13779;-33.886;151.198;2023-03-24T16:34:45;7.57;;;1.70;;
25990;SDS011;13779;-33.886;151.198;2023-03-24T16:37:16;11.05;;;2.67;;
25990;SDS011;13779;-33.886;151.198;2023-03-24T16:39:47;7.25;;;1.77;;
25990;SDS011;13779;-33.886;151.198;2023-03-24T16:42:18;9.00;;;1.83;;
25990;SDS011;13779;-33.886;151.198;2023-03-24T16:44:48;7.35;;;1.83;;
25990;SDS011;13779;-33.886;151.198;2023-03-24T16:47:19;6.97;;;1.77;;
25990;SDS011;13779;-33.886;151.198;2023-03-24T16:52:20;5.63;;;1.73;;
25990;SDS011;13779;-33.886;151.198;2023-03-24T16:54:50;7.85;;;1.92;;
25990;SDS011;13779;-33.886;151.198;2023-03-24T16:57:22;4.35;;;1.40;;
25990;SDS011;13779;-33.886;151.198;2023-03-24T16:59:52;6.72;;;1.50;;
25990;SDS011;13779;-33.886;151.198;2023-03-24T17:02:23;9.13;;;2.00;;
25990;SDS011;13779;-33.886;151.198;2023-03-24T17:04:54;5.88;;;1.70;;
25990;SDS011;13779;-33.886;151.198;2023-03-24T17:07:25;8.80;;;1.90;;
25990;SDS011;13779;-33.886;151.198;2023-03-24T17:09:56;6.60;;;2.00;;
25990;SDS011;13779;-33.886;151.198;2023-03-24T17:12:26;8.90;;;2.10;;
25990;SDS011;13779;-33.886;151.198;2023-03-24T17:14:57;8.77;;;2.28;;
25990;SDS011;13779;-33.886;151.198;2023-03-24T17:17:28;8.68;;;1.83;;
25990;SDS011;13779;-33.886;151.198;2023-03-24T17:19:58;5.40;;;1.77;;
25990;SDS011;13779;-33.886;151.198;2023-03-24T17:22:31;5.13;;;1.75;;
25990;SDS011;13779;-33.886;151.198;2023-03-24T17:25:02;10.18;;;2.55;;
25990;SDS011;13779;-33.886;151.198;2023-03-24T17:27:32;5.22;;;2.13;;
25990;SDS011;13779;-33.886;151.198;2023-03-24T17:30:04;5.20;;;2.08;;
25990;SDS011;13779;-33.886;151.198;2023-03-24T17:32:35;5.60;;;2.00;;
25990;SDS011;13779;-33.886;151.198;2023-03-24T17:35:09;10.40;;;2.33;;
25990;SDS011;13779;-33.886;151.198;2023-03-24T17:37:40;4.45;;;2.10;;
25990;SDS011;13779;-33.886;151.198;2023-03-24T17:40:11;8.75;;;2.22;;
25990;SDS011;13779;-33.886;151.198;2023-03-24T17:42:43;9.45;;;1.67;;
25990;SDS011;13779;-33.886;151.198;2023-03-24T17:45:15;6.63;;;2.33;;
25990;SDS011;13779;-33.886;151.198;2023-03-24T17:47:46;6.43;;;1.52;;
25990;SDS011;13779;-33.886;151.198;2023-03-24T17:50:17;4.35;;;1.35;;
25990;SDS011;13779;-33.886;151.198;2023-03-24T17:52:47;6.05;;;2.10;;
25990;SDS011;13779;-33.886;151.198;2023-03-24T17:55:18;7.40;;;2.05;;
25990;SDS011;13779;-33.886;151.198;2023-03-24T17:57:49;5.88;;;1.85;;
25990;SDS011;13779;-33.886;151.198;2023-03-24T18:00:19;5.72;;;1.33;;
25990;SDS011;13779;-33.886;151.198;2023-03-24T18:02:49;7.30;;;1.53;;
25990;SDS011;13779;-33.886;151.198;2023-03-24T18:05:20;8.30;;;1.60;;
25990;SDS011;13779;-33.886;151.198;2023-03-24T18:07:50;7.93;;;1.42;;
25990;SDS011;13779;-33.886;151.198;2023-03-24T18:10:20;8.05;;;1.70;;
25990;SDS011;13779;-33.886;151.198;2023-03-24T18:12:50;3.30;;;1.23;;
25990;SDS011;13779;-33.886;151.198;2023-03-24T18:17:53;5.70;;;1.60;;
25990;SDS011;13779;-33.886;151.198;2023-03-24T18:20:23;11.32;;;2.85;;
25990;SDS011;13779;-33.886;151.198;2023-03-24T18:22:53;5.15;;;1.38;;
25990;SDS011;13779;-33.886;151.198;2023-03-24T18:25:24;9.38;;;2.28;;
25990;SDS011;13779;-33.886;151.198;2023-03-24T18:27:54;4.45;;;1.30;;
25990;SDS011;13779;-33.886;151.198;2023-03-24T18:30:24;3.78;;;1.63;;